Time;durP1;ratioP1;P1;durP2;ratioP2;P2;SDS_P1;SDS_P2;PMS_P1;PMS_P2;Temp;Humidity;BMP_temperature;BMP_pressure;BME280_temperature;BME280_humidity;BME280_pressure;Samples;Min_cycle;Max_cycle;Signal;HPM_P1;HPM_P2
2021/05/28 00:01:39;;;;;;;9.18;4.20;;;;;;;11.85;59.60;102279.63;4895696;28;123919;-67
2021/05/28 00:04:06;;;;;;;7.32;4.38;;;;;;;11.83;59.47;102277.00;4900981;28;119679;-66
2021/05/28 00:06:33;;;;;;;15.38;4.82;;;;;;;11.83;59.76;102286.75;4891556;28;118369;-66
2021/05/28 00:09:00;;;;;;;6.90;4.85;;;;;;;11.81;59.77;102289.44;4890572;28;124197;-66
2021/05/28 00:11:27;;;;;;;9.10;4.38;;;;;;;11.80;59.64;102287.69;4890829;28;123789;-67
2021/05/28 00:13:55;;;;;;;8.70;4.57;;;;;;;11.79;59.89;102296.59;4895763;28;120032;-66
2021/05/28 00:16:22;;;;;;;9.75;4.70;;;;;;;11.78;59.78;102294.84;4895709;28;118838;-66
2021/05/28 00:18:49;;;;;;;10.80;4.68;;;;;;;11.77;59.76;102290.44;4888071;28;123410;-67
2021/05/28 00:21:16;;;;;;;8.88;4.72;;;;;;;11.75;59.82;102294.91;4893943;28;124510;-66
2021/05/28 00:23:43;;;;;;;11.05;5.15;;;;;;;11.75;59.84;102297.56;4892689;28;119045;-66
2021/05/28 00:26:10;;;;;;;12.88;5.57;;;;;;;11.73;59.92;102299.38;4891258;28;119445;-66
2021/05/28 00:28:37;;;;;;;9.23;4.65;;;;;;;11.73;59.86;102301.16;4893455;28;124424;-67
2021/05/28 00:31:04;;;;;;;10.10;5.38;;;;;;;11.72;60.06;102300.31;4923479;28;122755;-66
2021/05/28 00:33:31;;;;;;;9.18;5.32;;;;;;;11.72;60.15;102304.75;4893922;28;119189;-66
2021/05/28 00:35:58;;;;;;;11.13;5.55;;;;;;;11.70;59.89;102296.84;4891671;28;118744;-66
2021/05/28 00:38:25;;;;;;;10.05;5.40;;;;;;;11.69;60.32;102301.25;4894215;28;124830;-67
2021/05/28 00:40:53;;;;;;;9.48;5.13;;;;;;;11.70;59.97;102299.47;4891789;28;123749;-67
2021/05/28 00:43:20;;;;;;;11.57;5.43;;;;;;;11.68;60.22;102290.69;4910652;28;119522;-67
2021/05/28 00:45:47;;;;;;;8.77;4.95;;;;;;;11.68;60.05;102293.34;4894382;28;120636;-67
2021/05/28 00:48:14;;;;;;;11.82;5.18;;;;;;;11.66;60.08;102289.88;4919268;28;122948;-66
2021/05/28 00:50:41;;;;;;;11.57;5.03;;;;;;;11.65;60.10;102288.97;4891116;28;124756;-66
2021/05/28 00:53:08;;;;;;;11.80;5.10;;;;;;;11.64;59.85;102289.00;4890857;28;119375;-66
2021/05/28 00:55:35;;;;;;;8.57;4.75;;;;;;;11.61;59.99;102289.09;4904963;28;118184;-67
2021/05/28 00:58:02;;;;;;;11.60;5.70;;;;;;;11.61;60.06;102286.44;4893617;28;124688;-66
2021/05/28 01:00:30;;;;;;;12.63;5.35;;;;;;;11.59;60.11;102288.28;4894999;28;125251;-66
2021/05/28 01:02:58;;;;;;;7.60;5.03;;;;;;;11.56;60.09;102298.97;4894469;28;119466;-67
2021/05/28 01:05:26;;;;;;;11.00;5.65;;;;;;;11.55;60.12;102302.53;4912082;28;119690;-66
2021/05/28 01:07:54;;;;;;;8.32;4.78;;;;;;;11.52;59.69;102299.97;4891444;28;124682;-66
2021/05/28 01:10:21;;;;;;;11.65;5.10;;;;;;;11.49;59.83;102301.78;4903251;28;124247;-66
2021/05/28 01:12:49;;;;;;;9.60;5.22;;;;;;;11.45;59.87;102302.78;4906745;28;120068;-67
2021/05/28 01:15:16;;;;;;;10.30;5.25;;;;;;;11.42;59.74;102313.44;4896262;28;119040;-66
2021/05/28 01:17:43;;;;;;;7.60;5.20;;;;;;;11.38;59.56;102311.78;4894246;28;123739;-66
2021/05/28 01:20:11;;;;;;;7.80;4.75;;;;;;;11.34;59.48;102319.84;4894438;28;123401;-66
2021/05/28 01:22:38;;;;;;;10.18;5.30;;;;;;;11.30;59.86;102314.63;4905708;28;118912;-66
2021/05/28 01:25:07;;;;;;;9.02;5.00;;;;;;;11.26;59.77;102312.97;4895875;28;121378;-66
2021/05/28 01:27:34;;;;;;;10.88;5.47;;;;;;;11.24;59.90;102314.75;4896158;28;124759;-66
2021/05/28 01:30:04;;;;;;;8.85;5.30;;;;;;;11.22;60.02;102310.41;4915502;28;122664;-66
2021/05/28 01:32:32;;;;;;;11.55;5.75;;;;;;;11.21;60.22;102314.00;4899499;28;120370;-66
2021/05/28 01:34:59;;;;;;;11.32;5.45;;;;;;;11.20;60.19;102317.53;4923376;28;118957;-67
2021/05/28 01:37:26;;;;;;;9.88;5.90;;;;;;;11.21;60.65;102308.69;4892623;28;123991;-66
2021/05/28 01:39:53;;;;;;;10.88;5.88;;;;;;;11.22;60.41;102305.09;4895223;28;123644;-67
2021/05/28 01:42:21;;;;;;;10.65;5.70;;;;;;;11.24;60.46;102297.97;4906488;28;119417;-66
2021/05/28 01:44:48;;;;;;;9.70;5.75;;;;;;;11.25;60.19;102300.59;4911761;28;118534;-67
2021/05/28 01:47:16;;;;;;;9.02;5.63;;;;;;;11.27;60.40;102303.22;4909445;28;124361;-66
2021/05/28 01:49:43;;;;;;;8.77;5.57;;;;;;;11.26;60.14;102301.47;4898020;28;124647;-66
2021/05/28 01:52:12;;;;;;;9.55;5.45;;;;;;;11.25;60.41;102291.78;5020866;23;119171;-65
2021/05/28 01:54:40;;;;;;;9.10;5.43;;;;;;;11.25;60.03;102297.94;4946321;28;118886;-64
2021/05/28 01:57:10;;;;;;;11.55;5.18;;;;;;;11.23;60.18;102301.56;4942928;28;124210;-64
2021/05/28 01:59:38;;;;;;;7.22;4.60;;;;;;;11.21;59.87;102292.78;4944898;28;124163;-64
2021/05/28 02:02:06;;;;;;;8.93;4.63;;;;;;;11.17;60.05;102291.06;4951840;28;119395;-64
2021/05/28 02:04:34;;;;;;;6.85;4.90;;;;;;;11.14;59.88;102296.47;4949521;28;119654;-64
2021/05/28 02:07:02;;;;;;;8.80;4.70;;;;;;;11.10;59.91;102290.38;4938594;28;124107;-64
2021/05/28 02:09:30;;;;;;;8.32;5.10;;;;;;;11.07;59.92;102296.59;4945412;28;123996;-64
2021/05/28 02:11:57;;;;;;;10.20;4.97;;;;;;;11.03;60.06;102294.94;4950145;28;119415;-64
2021/05/28 02:14:29;;;;;;;8.95;4.95;;;;;;;10.99;59.94;102298.56;4963999;28;118017;-64
2021/05/28 02:16:57;;;;;;;7.63;4.80;;;;;;;10.96;59.73;102303.94;4940714;28;123705;-64
2021/05/28 02:19:24;;;;;;;8.30;4.95;;;;;;;10.93;59.79;102304.03;4949609;28;124208;-64
2021/05/28 02:21:53;;;;;;;11.75;5.00;;;;;;;10.89;59.84;102299.72;4950492;28;121001;-64
2021/05/28 02:24:22;;;;;;;7.85;5.22;;;;;;;10.85;60.03;102300.66;4961690;28;119071;-64
2021/05/28 02:26:51;;;;;;;11.13;5.32;;;;;;;10.81;59.73;102304.28;4944393;28;123866;-64
2021/05/28 02:29:18;;;;;;;11.73;5.85;;;;;;;10.78;59.75;102304.38;4944154;28;123793;-64
2021/05/28 02:31:45;;;;;;;10.32;5.40;;;;;;;10.75;59.82;102299.13;4948394;28;119292;-64
2021/05/28 02:34:12;;;;;;;7.22;5.10;;;;;;;10.71;59.96;102301.84;4943312;28;119459;-64
2021/05/28 02:36:39;;;;;;;8.75;5.35;;;;;;;10.68;59.66;102301.94;4950120;28;124139;-64
2021/05/28 02:39:08;;;;;;;8.38;5.53;;;;;;;10.65;59.90;102299.34;4943121;28;124329;-64
2021/05/28 02:41:35;;;;;;;6.43;4.97;;;;;;;10.62;59.55;102307.34;4947984;28;118728;-64
2021/05/28 02:44:04;;;;;;;8.30;5.20;;;;;;;10.58;60.03;102308.31;4942755;28;119669;-69
2021/05/28 02:46:34;;;;;;;8.80;5.78;;;;;;;10.53;59.97;102315.50;4943565;28;123764;-64
2021/05/28 02:49:02;;;;;;;8.05;5.30;;;;;;;10.50;60.08;102323.50;4947879;28;124303;-64
2021/05/28 02:51:29;;;;;;;10.52;6.00;;;;;;;10.47;59.75;102326.22;4945779;28;119399;-64
2021/05/28 02:53:57;;;;;;;13.25;5.78;;;;;;;10.45;59.93;102322.72;4946068;28;119319;-64
2021/05/28 02:56:24;;;;;;;11.13;5.88;;;;;;;10.42;60.03;102325.47;4943335;28;124193;-64
2021/05/28 02:58:51;;;;;;;10.75;6.13;;;;;;;10.41;59.91;102334.28;4959674;28;123509;-64
2021/05/28 03:01:18;;;;;;;11.60;6.60;;;;;;;10.38;60.23;102335.25;4943964;28;119082;-64
2021/05/28 03:03:45;;;;;;;11.48;6.60;;;;;;;10.38;60.34;102337.00;4942617;28;118987;-64
2021/05/28 03:06:12;;;;;;;14.57;7.85;;;;;;;10.37;60.13;102340.56;4940565;28;124002;-64
2021/05/28 03:08:39;;;;;;;16.33;7.43;;;;;;;10.35;60.24;102343.22;4945068;28;123215;-64
2021/05/28 03:11:06;;;;;;;13.45;8.00;;;;;;;10.33;60.30;102351.19;4947641;28;120270;-64
2021/05/28 03:13:34;;;;;;;17.92;7.93;;;;;;;10.32;60.28;102354.78;4942305;28;119384;-64
2021/05/28 03:16:01;;;;;;;20.70;8.15;;;;;;;10.31;60.39;102354.78;4945393;28;124277;-64
2021/05/28 03:18:44;;;;;;;46.78;9.30;;;;;;;10.28;60.56;102347.75;4946653;28;123977;-64
2021/05/28 03:23:49;;;;;;;86.22;11.00;;;;;;;10.24;60.82;102356.63;4946542;28;119030;-64
2021/05/28 03:26:17;;;;;;;42.30;9.65;;;;;;;10.23;60.89;102362.84;4942870;28;124100;-64
2021/05/28 03:28:44;;;;;;;152.02;10.75;;;;;;;10.23;61.23;102365.50;4946847;28;124005;-64
2021/05/28 03:31:12;;;;;;;58.65;10.30;;;;;;;10.22;61.01;102368.19;4949700;28;119469;-64
2021/05/28 03:33:39;;;;;;;62.90;10.23;;;;;;;10.20;61.29;102370.84;4946286;28;119388;-64
2021/05/28 03:36:07;;;;;;;71.85;10.50;;;;;;;10.20;61.32;102370.84;4945360;28;123849;-64
2021/05/28 03:38:34;;;;;;;118.32;11.32;;;;;;;10.22;61.29;102379.63;4945872;28;124732;-64
2021/05/28 03:41:02;;;;;;;99.38;11.32;;;;;;;10.20;61.70;102370.84;4936104;28;119406;-64
2021/05/28 03:43:29;;;;;;;44.17;9.77;;;;;;;10.20;61.61;102370.84;4947974;28;119139;-63
2021/05/28 03:45:56;;;;;;;35.67;9.98;;;;;;;10.20;61.61;102369.97;4944241;28;123360;-64
2021/05/28 03:48:23;;;;;;;50.70;9.30;;;;;;;10.23;61.79;102376.09;4936808;28;123414;-64
2021/05/28 03:50:51;;;;;;;15.88;8.88;;;;;;;10.24;62.10;102372.53;4946509;28;119149;-64
2021/05/28 03:53:18;;;;;;;14.60;9.10;;;;;;;10.28;62.12;102379.53;4943886;28;119160;-64
2021/05/28 03:55:46;;;;;;;16.50;8.57;;;;;;;10.32;62.27;102381.25;4964827;28;123840;-64
2021/05/28 03:58:13;;;;;;;13.73;8.73;;;;;;;10.37;62.03;102385.59;4944972;28;122846;-65
2021/05/28 04:00:41;;;;;;;16.75;9.32;;;;;;;10.42;62.22;102384.59;4945169;28;120295;-65
2021/05/28 04:03:08;;;;;;;18.42;9.45;;;;;;;10.48;62.44;102380.94;4942073;28;119924;-65
2021/05/28 04:05:35;;;;;;;28.65;10.48;;;;;;;10.52;62.56;102379.97;4961250;28;123928;-64
2021/05/28 04:08:02;;;;;;;97.93;12.75;;;;;;;10.59;62.35;102383.38;4942014;28;123635;-64
2021/05/28 04:10:30;;;;;;;93.78;12.90;;;;;;;10.63;62.72;102375.34;4948481;28;119932;-64
2021/05/28 04:12:57;;;;;;;177.73;14.70;;;;;;;10.67;62.80;102369.06;4945620;28;118127;-64
2021/05/28 04:15:24;;;;;;;214.25;17.00;;;;;;;10.75;62.79;102378.63;4945917;28;123955;-64
2021/05/28 04:17:51;;;;;;;135.45;14.80;;;;;;;10.79;62.81;102372.34;4949376;28;125066;-64
2021/05/28 04:20:18;;;;;;;156.40;15.10;;;;;;;10.85;63.10;102380.16;4939987;28;119071;-64
2021/05/28 04:22:45;;;;;;;280.10;17.33;;;;;;;10.86;63.16;102381.94;4936255;28;119764;-64
2021/05/28 04:25:13;;;;;;;320.83;17.88;;;;;;;10.87;63.30;102381.03;4938482;28;123755;-64
2021/05/28 04:27:40;;;;;;;299.67;16.50;;;;;;;10.89;63.29;102387.19;4938515;28;124296;-64
2021/05/28 04:30:08;;;;;;;159.63;16.65;;;;;;;10.92;63.30;102387.09;4946862;28;118615;-64
2021/05/28 04:32:35;;;;;;;52.58;15.18;;;;;;;10.96;63.45;102388.75;4946454;28;119389;-64
2021/05/28 04:35:03;;;;;;;105.13;16.00;;;;;;;11.01;63.66;102392.19;4945869;28;124145;-64
2021/05/28 04:37:30;;;;;;;91.65;15.52;;;;;;;11.06;63.53;102400.94;4941331;28;123782;-64
2021/05/28 04:39:57;;;;;;;199.98;16.00;;;;;;;11.10;63.30;102402.59;4936734;28;119081;-64
2021/05/28 04:42:24;;;;;;;186.25;15.45;;;;;;;11.13;63.34;102406.09;4942228;28;118280;-64
2021/05/28 04:44:51;;;;;;;204.05;17.10;;;;;;;11.17;63.30;102407.75;4941035;28;124797;-64
2021/05/28 04:47:18;;;;;;;201.85;17.70;;;;;;;11.19;63.71;102412.16;4939681;28;123749;-64
2021/05/28 04:49:46;;;;;;;116.40;15.90;;;;;;;11.22;63.47;102421.78;4945422;28;120274;-64
2021/05/28 04:52:14;;;;;;;111.30;16.38;;;;;;;11.25;63.48;102419.09;4946190;28;119982;-64
2021/05/28 04:54:41;;;;;;;140.57;16.10;;;;;;;11.27;63.37;102425.22;4938918;28;124144;-64
2021/05/28 04:57:08;;;;;;;131.88;16.95;;;;;;;11.30;63.50;102425.13;4947331;28;124330;-64
2021/05/28 04:59:35;;;;;;;120.80;16.17;;;;;;;11.34;63.41;102434.81;4945743;28;118700;-64
2021/05/28 05:02:02;;;;;;;58.63;15.18;;;;;;;11.38;63.35;102428.50;4940002;28;119456;-64
2021/05/28 05:04:29;;;;;;;37.35;14.43;;;;;;;11.42;63.33;102422.22;4948437;28;122897;-64
2021/05/28 05:06:56;;;;;;;43.40;15.23;;;;;;;11.46;63.55;102421.22;4944155;28;123964;-64
2021/05/28 05:09:23;;;;;;;98.22;15.23;;;;;;;11.50;63.47;102428.22;4946697;28;120364;-64
2021/05/28 05:11:51;;;;;;;133.38;15.70;;;;;;;11.53;63.51;102432.59;4946959;28;119096;-64
2021/05/28 05:14:18;;;;;;;120.43;15.23;;;;;;;11.57;63.35;102436.03;4945287;28;123930;-64
2021/05/28 05:16:45;;;;;;;148.30;16.38;;;;;;;11.58;63.31;102440.44;4948057;28;123871;-64
2021/05/28 05:19:13;;;;;;;149.88;17.13;;;;;;;11.60;63.10;102438.59;4938433;28;119245;-64
2021/05/28 05:21:40;;;;;;;142.98;14.43;;;;;;;11.59;63.01;102442.19;4946946;28;118971;-64
2021/05/28 05:24:09;;;;;;;62.38;13.20;;;;;;;11.58;63.11;102438.63;4943014;28;123372;-65
2021/05/28 05:26:38;;;;;;;35.10;13.38;;;;;;;11.58;63.27;102435.97;4945293;28;122840;-64
2021/05/28 05:29:05;;;;;;;53.85;13.60;;;;;;;11.60;63.14;102443.91;4943361;28;120050;-64
2021/05/28 05:31:33;;;;;;;86.63;14.00;;;;;;;11.65;63.23;102447.34;4945639;28;117865;-63
2021/05/28 05:34:00;;;;;;;35.15;12.48;;;;;;;11.69;63.39;102449.00;4941478;28;124196;-64
2021/05/28 05:36:27;;;;;;;65.05;14.00;;;;;;;11.74;63.35;102452.44;4948497;28;124053;-63
2021/05/28 05:38:54;;;;;;;65.05;13.50;;;;;;;11.78;63.10;102447.94;4938404;28;120338;-63
2021/05/28 05:41:25;;;;;;;77.50;13.30;;;;;;;11.79;62.93;102455.84;4944700;28;120040;-64
2021/05/28 05:43:52;;;;;;;38.15;12.70;;;;;;;11.80;63.14;102456.72;4944131;28;123964;-64
2021/05/28 05:46:19;;;;;;;36.97;12.10;;;;;;;11.81;63.07;102459.34;4944799;28;124087;-64
2021/05/28 05:48:46;;;;;;;33.83;12.90;;;;;;;11.82;62.91;102461.06;4942900;28;119687;-64
2021/05/28 05:51:14;;;;;;;35.03;12.23;;;;;;;11.84;63.19;102469.88;4946581;28;119495;-64
2021/05/28 05:53:41;;;;;;;28.33;12.38;;;;;;;11.84;62.93;102469.00;4941433;28;124936;-64
2021/05/28 05:56:08;;;;;;;36.22;11.88;;;;;;;11.85;62.96;102471.63;4945264;28;124045;-67
2021/05/28 05:58:35;;;;;;;24.17;12.25;;;;;;;11.84;62.81;102469.88;4944450;28;120114;-64
2021/05/28 06:01:02;;;;;;;28.95;11.93;;;;;;;11.85;62.80;102466.31;4944465;28;118931;-64
2021/05/28 06:03:29;;;;;;;30.08;12.85;;;;;;;11.88;62.81;102466.25;4948366;28;124321;-63
2021/05/28 06:05:57;;;;;;;19.70;11.95;;;;;;;11.88;62.79;102466.25;4946330;28;124466;-64
2021/05/28 06:08:24;;;;;;;33.22;11.77;;;;;;;11.92;63.08;102474.16;4945538;28;118317;-64
2021/05/28 06:10:52;;;;;;;21.67;12.02;;;;;;;11.97;63.08;102480.25;4950941;28;119097;-64
2021/05/28 06:13:19;;;;;;;18.73;12.98;;;;;;;12.01;63.03;102476.59;4941368;28;124042;-64
2021/05/28 06:15:46;;;;;;;18.00;12.05;;;;;;;12.03;62.66;102480.06;4938819;28;123854;-65
2021/05/28 06:18:14;;;;;;;17.17;12.10;;;;;;;12.06;63.01;102482.66;4942197;28;119428;-64
2021/05/28 06:20:41;;;;;;;58.03;12.40;;;;;;;12.10;62.81;102476.38;4949908;28;118487;-64
2021/05/28 06:23:09;;;;;;;17.02;12.20;;;;;;;12.12;62.92;102479.84;4937226;28;124050;-65
2021/05/28 06:25:41;;;;;;;30.08;12.60;;;;;;;12.15;62.74;102479.78;4942390;28;123753;-64
2021/05/28 06:28:09;;;;;;;20.58;13.07;;;;;;;12.18;63.01;102482.34;4941153;28;120195;-64
2021/05/28 06:30:36;;;;;;;19.13;12.30;;;;;;;12.22;63.01;102481.38;4945540;28;120424;-65
2021/05/28 06:33:05;;;;;;;21.60;12.95;;;;;;;12.27;63.10;102490.09;4947128;28;123916;-64
2021/05/28 06:35:37;;;;;;;23.70;12.73;;;;;;;12.31;62.79;102490.00;4945704;28;123959;-65
2021/05/28 06:38:05;;;;;;;25.73;13.32;;;;;;;12.36;62.89;102488.13;4947103;28;119397;-65
2021/05/28 06:40:32;;;;;;;19.80;12.93;;;;;;;12.41;62.81;102496.81;4949830;28;119594;-65
2021/05/28 06:42:59;;;;;;;29.77;12.85;;;;;;;12.46;62.58;102500.25;4950263;28;122931;-65
2021/05/28 06:45:26;;;;;;;20.13;12.48;;;;;;;12.48;62.40;102498.41;4945584;28;124409;-65
2021/05/28 06:47:53;;;;;;;17.65;12.27;;;;;;;12.50;62.39;102501.03;4946846;28;119002;-65
2021/05/28 06:50:21;;;;;;;17.88;13.00;;;;;;;12.52;62.64;102494.75;4949959;28;119225;-65
2021/05/28 06:52:48;;;;;;;17.05;12.23;;;;;;;12.58;62.49;102494.59;4949953;28;123955;-64
2021/05/28 06:55:16;;;;;;;22.83;11.70;;;;;;;12.63;62.24;102498.00;4944891;28;124699;-65
2021/05/28 06:57:43;;;;;;;15.93;11.43;;;;;;;12.63;61.93;102498.00;4950061;28;120396;-65
2021/05/28 07:00:11;;;;;;;16.52;11.82;;;;;;;12.63;61.51;102498.00;4949595;28;118601;-65
2021/05/28 07:02:38;;;;;;;16.00;11.90;;;;;;;12.62;61.87;102509.56;4950583;28;124274;-65
2021/05/28 07:05:07;;;;;;;18.83;12.32;;;;;;;12.66;62.12;102503.25;4950553;28;124755;-65
2021/05/28 07:07:34;;;;;;;15.32;11.63;;;;;;;12.70;61.54;102508.47;4949462;28;119334;-65
2021/05/28 07:10:02;;;;;;;19.25;13.68;;;;;;;12.68;61.38;102510.28;4952252;28;119409;-65
2021/05/28 07:12:29;;;;;;;18.13;13.35;;;;;;;12.66;61.43;102513.88;4951541;28;123823;-65
2021/05/28 07:14:56;;;;;;;17.25;12.55;;;;;;;12.65;61.83;102516.56;4948975;28;123957;-65
2021/05/28 07:17:24;;;;;;;18.67;13.80;;;;;;;12.68;61.90;102523.56;4947975;28;119158;-65
2021/05/28 07:19:51;;;;;;;15.77;12.18;;;;;;;12.75;62.09;102518.06;4950048;28;120108;-65
2021/05/28 07:22:18;;;;;;;17.48;12.05;;;;;;;12.81;62.15;102517.03;4947835;28;124013;-65
2021/05/28 07:24:45;;;;;;;18.30;12.75;;;;;;;12.88;62.26;102515.94;4950092;28;123893;-65
2021/05/28 07:27:12;;;;;;;18.77;13.32;;;;;;;12.98;62.33;102517.44;4949223;28;118752;-65
2021/05/28 07:29:39;;;;;;;18.67;12.55;;;;;;;13.10;62.38;102518.88;4949444;28;119338;-65
2021/05/28 07:32:06;;;;;;;16.90;12.85;;;;;;;13.21;62.10;102515.91;4948358;28;124142;-64
2021/05/28 07:34:34;;;;;;;16.58;12.40;;;;;;;13.31;62.12;102512.06;4946812;28;123825;-65
2021/05/28 07:37:01;;;;;;;17.35;13.20;;;;;;;13.43;62.23;102517.03;4950003;28;120035;-65
2021/05/28 07:39:29;;;;;;;19.23;13.50;;;;;;;13.59;61.99;102511.25;4951377;28;119443;-65
2021/05/28 07:41:56;;;;;;;16.80;12.82;;;;;;;13.69;61.93;102518.00;4948179;28;124749;-65
2021/05/28 07:44:24;;;;;;;16.35;12.55;;;;;;;13.79;61.55;102508.84;4949176;28;125300;-65
2021/05/28 07:46:52;;;;;;;17.00;13.13;;;;;;;13.91;61.12;102512.03;4950068;28;120073;-65
2021/05/28 07:49:19;;;;;;;16.58;12.80;;;;;;;14.04;61.41;102518.69;4948074;28;120207;-65
2021/05/28 07:51:47;;;;;;;16.60;12.48;;;;;;;14.16;60.93;102518.28;4946922;28;124019;-65
2021/05/28 07:54:16;;;;;;;17.15;12.75;;;;;;;14.23;60.34;102512.75;4961869;23;123989;-68
2021/05/28 07:56:44;;;;;;;16.25;12.73;;;;;;;14.24;60.05;102525.13;4949793;28;118797;-69
2021/05/28 07:59:11;;;;;;;17.77;13.10;;;;;;;14.24;60.17;102519.81;4950548;28;119371;-68
2021/05/28 08:01:39;;;;;;;15.60;12.43;;;;;;;14.29;60.31;102507.22;4947723;28;123278;-68
2021/05/28 08:04:06;;;;;;;17.40;13.20;;;;;;;14.37;60.54;102515.81;4947955;28;123868;-68
2021/05/28 08:06:33;;;;;;;15.35;12.98;;;;;;;14.46;60.48;102515.50;4947208;28;120585;-68
2021/05/28 08:09:00;;;;;;;15.20;12.43;;;;;;;14.51;60.17;102518.88;4952170;28;120481;-68
2021/05/28 08:11:27;;;;;;;14.40;12.05;;;;;;;14.58;60.17;102519.59;4953153;28;124269;-68
2021/05/28 08:13:54;;;;;;;16.42;12.10;;;;;;;14.66;59.40;102521.97;4949091;28;124240;-68
2021/05/28 08:16:22;;;;;;;14.95;11.98;;;;;;;14.68;59.30;102522.78;4949313;28;119981;-68
2021/05/28 08:18:49;;;;;;;17.35;12.07;;;;;;;14.71;59.37;102520.00;4941553;28;119062;-68
2021/05/28 08:21:16;;;;;;;16.33;12.40;;;;;;;14.74;59.27;102525.22;4947471;28;123880;-68
2021/05/28 08:23:43;;;;;;;16.58;12.68;;;;;;;14.78;59.70;102527.72;4947704;28;123954;-68
2021/05/28 08:26:10;;;;;;;15.80;12.55;;;;;;;14.85;59.30;102528.38;4933213;28;119408;-68
2021/05/28 08:28:37;;;;;;;15.52;11.95;;;;;;;14.89;59.29;102519.34;4948607;28;119038;-68
2021/05/28 08:31:07;;;;;;;17.85;13.23;;;;;;;14.97;59.28;102519.06;4960528;28;123810;-68
2021/05/28 08:33:34;;;;;;;16.15;12.70;;;;;;;15.04;58.99;102511.72;4949163;28;125140;-68
2021/05/28 08:36:02;;;;;;;16.92;13.38;;;;;;;15.10;59.32;102516.81;4948102;28;120128;-68
2021/05/28 08:38:29;;;;;;;14.50;12.80;;;;;;;15.17;59.19;102518.34;4948669;28;119011;-68
2021/05/28 08:40:56;;;;;;;16.10;12.80;;;;;;;15.25;58.98;102521.56;4948154;28;124821;-68
2021/05/28 08:43:24;;;;;;;17.63;13.60;;;;;;;15.32;58.92;102523.09;4946724;28;123853;-68
2021/05/28 08:45:51;;;;;;;15.90;12.77;;;;;;;15.40;58.63;102516.59;4947530;28;119520;-68
2021/05/28 08:48:19;;;;;;;17.65;13.02;;;;;;;15.45;58.63;102517.28;4949415;28;119818;-68
2021/05/28 08:50:48;;;;;;;15.68;13.00;;;;;;;15.51;58.82;102511.69;4948664;28;123810;-68
2021/05/28 08:53:16;;;;;;;16.83;13.05;;;;;;;15.58;58.56;102508.72;4948568;28;123508;-69
2021/05/28 08:55:45;;;;;;;14.52;12.02;;;;;;;15.72;57.80;102510.84;4948459;28;120803;-69
2021/05/28 08:58:15;;;;;;;14.32;12.18;;;;;;;15.80;58.20;102512.38;4946117;28;120158;-68
2021/05/28 09:00:45;;;;;;;12.52;11.07;;;;;;;15.89;58.07;102512.00;4946071;28;124101;-68
2021/05/28 09:03:30;;;;;;;15.60;11.50;;;;;;;16.02;58.17;102517.72;4946570;28;123847;-68
2021/05/28 09:06:03;;;;;;;13.63;10.88;;;;;;;16.15;57.91;102518.94;4947778;28;120083;-69
2021/05/28 09:08:35;;;;;;;14.68;11.63;;;;;;;16.29;58.19;102513.91;4946544;28;118731;-70
2021/05/28 09:11:05;;;;;;;15.68;9.93;;;;;;;16.48;57.87;102511.31;4949306;28;124267;-69
2021/05/28 09:13:33;;;;;;;13.45;10.43;;;;;;;16.64;56.98;102513.31;4949672;28;122046;-69
2021/05/28 09:16:09;;;;;;;11.77;10.10;;;;;;;16.71;56.42;102517.47;4950255;28;118932;-69
2021/05/28 09:18:47;;;;;;;13.82;10.32;;;;;;;16.77;55.99;102510.97;4949059;28;120167;-72
2021/05/28 09:21:21;;;;;;;11.50;9.88;;;;;;;16.83;56.09;102516.94;4948959;28;123547;-70
2021/05/28 09:23:49;;;;;;;13.00;10.07;;;;;;;16.91;55.99;102513.91;4948202;28;124083;-69
2021/05/28 09:26:17;;;;;;;12.80;10.07;;;;;;;16.99;55.44;102510.88;4948909;28;119570;-70
2021/05/28 09:28:49;;;;;;;12.35;10.73;;;;;;;17.07;56.18;102514.09;4946157;28;117096;-69
2021/05/28 09:31:21;;;;;;;11.98;10.73;;;;;;;17.18;55.72;102509.13;4952677;28;123981;-69
2021/05/28 09:33:50;;;;;;;11.35;9.93;;;;;;;17.28;55.83;102510.41;4949079;28;124248;-69
2021/05/28 09:36:28;;;;;;;12.77;10.30;;;;;;;17.39;56.13;102509.06;4946216;28;118760;-69
2021/05/28 09:39:11;;;;;;;13.13;8.70;;;;;;;17.51;55.23;102500.44;4948593;28;119740;-69
2021/05/28 09:41:51;;;;;;;11.13;8.38;;;;;;;17.58;54.79;102501.00;4947173;28;125579;-69
2021/05/28 09:44:25;;;;;;;10.38;9.10;;;;;;;17.64;54.47;102498.91;4948542;28;124223;-70
2021/05/28 09:47:14;;;;;;;10.53;9.40;;;;;;;17.71;54.45;102488.75;4942332;28;120540;-69
2021/05/28 09:49:45;;;;;;;11.43;9.75;;;;;;;17.78;53.14;102489.31;4945841;28;119929;-70
2021/05/28 09:52:24;;;;;;;11.43;9.35;;;;;;;17.79;53.45;102488.38;4950448;28;124084;-71
2021/05/28 09:55:07;;;;;;;11.70;8.60;;;;;;;17.84;53.16;102484.56;4948098;28;124816;-71
2021/05/28 09:57:36;;;;;;;12.13;8.82;;;;;;;17.91;52.16;102479.75;4956303;28;118429;-71
2021/05/28 10:00:21;;;;;;;9.05;7.93;;;;;;;17.95;52.39;102486.72;4955087;28;118708;-71
2021/05/28 10:03:16;;;;;;;9.82;8.30;;;;;;;18.04;52.71;102486.22;4952335;28;123744;-71
2021/05/28 10:05:51;;;;;;;11.30;7.28;;;;;;;18.20;52.25;102480.97;4951722;28;123755;-71
2021/05/28 10:08:21;;;;;;;9.45;7.45;;;;;;;18.31;51.88;102471.50;4947219;28;119629;-70
2021/05/28 10:10:50;;;;;;;9.65;8.15;;;;;;;18.42;53.02;102475.38;4950317;28;118749;-71
2021/05/28 10:13:23;;;;;;;9.95;6.80;;;;;;;18.58;52.22;102471.88;4948437;28;124019;-70
2021/05/28 10:15:52;;;;;;;8.80;7.38;;;;;;;18.71;52.10;102462.22;4950047;28;124040;-70
2021/05/28 10:18:21;;;;;;;8.68;6.30;;;;;;;18.78;51.31;102466.31;4948934;28;121160;-69
2021/05/28 10:20:51;;;;;;;9.43;6.78;;;;;;;18.82;51.22;102467.91;4939522;28;119623;-70
2021/05/28 10:23:19;;;;;;;9.02;4.05;;;;;;;18.85;50.07;102462.41;4951495;28;124078;-70
2021/05/28 10:25:46;;;;;;;6.38;4.95;;;;;;;18.90;50.27;102469.31;4948016;28;124108;-70
2021/05/28 10:28:19;;;;;;;6.38;5.45;;;;;;;18.96;50.00;102458.25;4951517;28;119406;-70
2021/05/28 10:30:48;;;;;;;8.80;6.75;;;;;;;19.01;49.87;102461.56;4934310;28;118164;-72
2021/05/28 10:33:30;;;;;;;7.93;6.30;;;;;;;19.07;50.33;102461.22;4949669;28;124361;-70
2021/05/28 10:36:00;;;;;;;8.77;6.20;;;;;;;19.16;50.55;102455.34;4946565;28;124659;-70
2021/05/28 10:38:30;;;;;;;7.28;5.55;;;;;;;19.28;50.58;102459.13;4949565;28;120501;-71
2021/05/28 10:41:06;;;;;;;4.25;3.30;;;;;;;19.37;48.16;102463.16;4949939;28;120385;-70
2021/05/28 10:43:49;;;;;;;5.60;4.30;;;;;;;19.38;48.05;102465.75;4946312;28;125060;-70
2021/05/28 10:46:19;;;;;;;5.50;4.20;;;;;;;19.40;47.58;102465.63;4946386;28;123603;-70
2021/05/28 10:48:47;;;;;;;5.20;3.83;;;;;;;19.41;48.15;102453.94;4946216;28;120085;-70
2021/05/28 10:51:15;;;;;;;6.55;4.95;;;;;;;19.46;47.72;102451.88;4947611;28;119680;-71
2021/05/28 10:53:51;;;;;;;6.28;4.65;;;;;;;19.51;48.64;102455.16;4948789;28;123893;-71
2021/05/28 10:56:22;;;;;;;6.15;4.50;;;;;;;19.62;48.02;102462.59;4945478;28;123998;-70
2021/05/28 10:58:51;;;;;;;5.10;4.38;;;;;;;19.71;47.73;102451.31;4948458;28;117866;-71
2021/05/28 11:01:40;;;;;;;6.95;5.47;;;;;;;19.78;47.92;102451.88;4949917;28;119383;-70
2021/05/28 11:04:21;;;;;;;5.57;4.97;;;;;;;19.84;47.67;102451.50;4945836;28;124042;-70
2021/05/28 11:06:54;;;;;;;6.78;5.35;;;;;;;19.90;47.64;102445.75;4945919;28;123081;-71
2021/05/28 11:09:39;;;;;;;7.75;6.10;;;;;;;19.95;47.89;102449.06;4948256;28;119299;-71
2021/05/28 11:12:08;;;;;;;7.70;5.65;;;;;;;20.05;49.08;102443.13;4949237;28;118832;-71
2021/05/28 11:14:38;;;;;;;5.70;4.88;;;;;;;20.17;48.21;102439.69;4949368;28;124065;-70
2021/05/28 11:17:05;;;;;;;5.18;3.90;;;;;;;20.27;45.99;102448.94;4948920;28;123788;-70